»·PEaware :: N521JP KNYL-KONT

N521JP :: KNYL-KONT

FLIGHT INFORMATION

Flight Status: Arrived
Operator: Privately registered:
United States
More flights under this callsign
Pilot: Jeff P. (6952)
Aircraft: BEECH AIRCRAFT BARON
(BE58)
More flights by this aircraft type
Origin: KNYL Yuma MCAS/Yuma Intl
United States
Destination: KONT Ontario Intl
United States
More flights between these airports :: More routes between these airports
Route: BZA IPL JLI PDZ
File this flight plan on PilotEdge
Remarks:
Altitude:
(Current/Filed)
10,500ft
Speed:
(Current/Filed)
140kts
Departed: 31-Dec-16 12:28 PM
Arrived: 31-Dec-16 01:44 PM
Distance/Time
Traveled:
172nm/1:16
Distance/Time
To Go:
Arrived

Flight Plot

Page will automatically refresh every two minutes.


Map Options




Map Legend


Flown Route
Filed Route
Departure Airport
Arrival Airport
Navaid (VOR, NDB)
Fix

Horizontal Profiles

Position Reports

Time Latitude Longitude Heading Altitude Ground
Speed
31-Dec-16 12:08 32.667992 -114.601358 180 213ft 0kts
31-Dec-16 12:08 32.667992 -114.601358 180 213ft 0kts
31-Dec-16 12:10 32.667992 -114.601358 180 213ft 0kts
31-Dec-16 12:10 32.667992 -114.601358 180 213ft 0kts
31-Dec-16 12:12 32.667992 -114.601358 180 213ft 0kts
31-Dec-16 12:13 32.667992 -114.601358 180 213ft 0kts
31-Dec-16 12:14 32.667992 -114.601358 180 213ft 0kts
31-Dec-16 12:15 32.667992 -114.601358 180 213ft 0kts
31-Dec-16 12:16 32.667992 -114.601358 180 213ft 0kts
31-Dec-16 12:17 32.667710 -114.601342 173 213ft 5kts
31-Dec-16 12:18 32.667290 -114.598814 89 213ft 10kts
31-Dec-16 12:19 32.667326 -114.595730 94 213ft 11kts
31-Dec-16 12:20 32.667370 -114.591967 88 213ft 13kts
31-Dec-16 12:21 32.667457 -114.587380 86 213ft 12kts
31-Dec-16 12:22 32.667160 -114.586076 174 213ft 0kts
31-Dec-16 12:23 32.667160 -114.586076 174 213ft 0kts
31-Dec-16 12:24 32.667160 -114.586076 174 213ft 0kts
31-Dec-16 12:25 32.667160 -114.586076 174 213ft 0kts
31-Dec-16 12:26 32.667160 -114.586076 174 213ft 0kts
31-Dec-16 12:27 32.666327 -114.586102 196 213ft 12kts
31-Dec-16 12:28 32.669102 -114.608691 311 1313ft 90kts
31-Dec-16 12:29 32.695185 -114.606114 9 2712ft 114kts
31-Dec-16 12:30 32.724832 -114.590477 22 4186ft 121kts
31-Dec-16 12:31 32.755574 -114.589843 328 5492ft 113kts
31-Dec-16 12:32 32.768170 -114.619426 264 6637ft 112kts
31-Dec-16 12:33 32.763345 -114.654869 258 7713ft 111kts
31-Dec-16 12:34 32.759655 -114.690528 267 8650ft 108kts
31-Dec-16 12:35 32.756092 -114.727336 263 9435ft 111kts
31-Dec-16 12:36 32.753965 -114.761787 268 10324ft 101kts
31-Dec-16 12:37 32.753464 -114.801260 270 10570ft 137kts
31-Dec-16 12:38 32.751276 -114.849776 266 10613ft 150kts
31-Dec-16 12:39 32.746735 -114.899616 266 10585ft 154kts
31-Dec-16 12:40 32.745220 -114.951137 270 10618ft 157kts
31-Dec-16 12:41 32.747702 -115.002895 273 10592ft 157kts
31-Dec-16 12:42 32.748248 -115.055233 269 10517ft 158kts
31-Dec-16 12:43 32.746938 -115.107239 269 10468ft 159kts
31-Dec-16 12:44 32.745228 -115.157207 267 10517ft 158kts
31-Dec-16 12:45 32.742188 -115.209362 273 10517ft 160kts
31-Dec-16 12:46 32.745423 -115.261662 273 10563ft 158kts
31-Dec-16 12:47 32.743869 -115.314339 264 10561ft 160kts
31-Dec-16 12:48 32.737991 -115.366611 270 10571ft 159kts
31-Dec-16 12:49 32.738546 -115.419261 271 10587ft 159kts
31-Dec-16 12:50 32.742325 -115.471516 285 10589ft 158kts
31-Dec-16 12:51 32.758220 -115.521047 294 10524ft 161kts
31-Dec-16 12:52 32.776452 -115.569646 294 10489ft 161kts
31-Dec-16 12:53 32.794398 -115.618314 291 10464ft 161kts
31-Dec-16 12:54 32.812629 -115.666758 291 10435ft 161kts
31-Dec-16 12:55 32.829030 -115.715819 292 10477ft 160kts
31-Dec-16 12:56 32.849172 -115.763447 301 10532ft 162kts
31-Dec-16 12:57 32.864830 -115.808448 285 10590ft 161kts
31-Dec-16 12:58 32.877492 -115.860240 288 10566ft 164kts
31-Dec-16 12:59 32.892337 -115.911813 290 10533ft 164kts
31-Dec-16 13:00 32.909040 -115.962554 289 10491ft 164kts
31-Dec-16 13:01 32.924324 -116.013836 288 10469ft 164kts
31-Dec-16 13:02 32.940008 -116.064733 293 10449ft 164kts
31-Dec-16 13:03 32.957692 -116.114783 294 10431ft 164kts
31-Dec-16 13:04 32.979010 -116.162666 299 10434ft 164kts
31-Dec-16 13:05 32.999177 -116.211008 283 10419ft 164kts
31-Dec-16 13:06 33.007781 -116.264316 296 10409ft 164kts
31-Dec-16 13:07 33.030019 -116.310426 299 10601ft 160kts
31-Dec-16 13:08 33.054995 -116.355521 301 10654ft 164kts
31-Dec-16 13:09 33.074852 -116.405459 291 10597ft 167kts
31-Dec-16 13:10 33.092648 -116.456494 292 10596ft 167kts
31-Dec-16 13:11 33.109442 -116.507808 288 10584ft 167kts
31-Dec-16 13:12 33.124635 -116.559968 288 10582ft 166kts
31-Dec-16 13:13 33.150650 -116.605291 310 10567ft 168kts
31-Dec-16 13:14 33.184257 -116.644212 314 10561ft 168kts
31-Dec-16 13:15 33.217845 -116.683153 312 10560ft 168kts
31-Dec-16 13:16 33.249705 -116.723838 309 10557ft 168kts
31-Dec-16 13:17 33.279004 -116.767210 307 10554ft 167kts
31-Dec-16 13:18 33.309826 -116.808903 311 10549ft 168kts
31-Dec-16 13:19 33.343645 -116.847569 316 10547ft 168kts
31-Dec-16 13:20 33.377785 -116.885769 314 10550ft 168kts
31-Dec-16 13:21 33.412368 -116.923604 315 10550ft 168kts
31-Dec-16 13:22 33.442644 -116.956923 314 10552ft 168kts
31-Dec-16 13:23 33.476331 -116.995788 314 10553ft 168kts
31-Dec-16 13:24 33.510649 -117.033711 314 10554ft 168kts
31-Dec-16 13:25 33.541150 -117.075817 305 10555ft 167kts
31-Dec-16 13:26 33.573619 -117.113754 316 10563ft 168kts
31-Dec-16 13:27 33.606155 -117.153696 307 10588ft 167kts
31-Dec-16 13:28 33.639904 -117.192412 316 10607ft 168kts
31-Dec-16 13:29 33.675595 -117.228160 319 10339ft 170kts
31-Dec-16 13:30 33.709456 -117.265735 309 10069ft 164kts
31-Dec-16 13:31 33.742785 -117.303956 316 9711ft 166kts
31-Dec-16 13:32 33.773777 -117.344421 311 9424ft 165kts
31-Dec-16 13:33 33.807236 -117.381589 315 8901ft 163kts
31-Dec-16 13:34 33.838043 -117.420245 312 8033ft 157kts
31-Dec-16 13:35 33.868536 -117.456263 306 6402ft 153kts
31-Dec-16 13:36 33.898147 -117.492629 316 5254ft 151kts
31-Dec-16 13:37 33.929737 -117.525671 315 4151ft 149kts
31-Dec-16 13:38 33.960741 -117.557232 326 2912ft 146kts
31-Dec-16 13:39 33.992711 -117.573347 354 2951ft 129kts
31-Dec-16 13:40 34.018538 -117.561660 17 2480ft 86kts
31-Dec-16 13:41 34.040057 -117.550096 15 2273ft 83kts
31-Dec-16 13:42 34.055424 -117.555106 268 1667ft 80kts
31-Dec-16 13:43 34.054884 -117.580257 271 1047ft 72kts
31-Dec-16 13:44 34.054620 -117.593472 238 944ft 14kts
31-Dec-16 13:45 34.054088 -117.594208 233 944ft 1kts
31-Dec-16 13:46 34.053841 -117.597283 271 944ft 10kts
31-Dec-16 13:47 34.053145 -117.599207 177 944ft 0kts
31-Dec-16 13:48 34.053145 -117.599207 177 944ft 0kts

Navigation Log

Ident Type
1. KNYL Airport
2. BZA Navaid
3. IPL Navaid
4. JLI Navaid
5. PDZ Navaid
6. KONT Airport